createdAt,value
2019-05-13T00:00:04.003Z,8.94
2019-05-13T00:02:34.727Z,8.87
2019-05-13T00:05:03.998Z,8.86
2019-05-13T00:07:34.216Z,8.83
2019-05-13T00:10:04.540Z,8.85
2019-05-13T00:12:35.470Z,8.73
2019-05-13T00:15:04.726Z,8.56
2019-05-13T00:17:33.774Z,8.45
2019-05-13T00:20:04.621Z,8.45
2019-05-13T00:22:33.975Z,8.50
2019-05-13T00:25:04.169Z,8.61
2019-05-13T00:27:33.878Z,8.45
2019-05-13T00:30:04.264Z,8.37
2019-05-13T00:32:33.703Z,8.32
2019-05-13T00:35:03.967Z,8.28
2019-05-13T00:37:33.426Z,8.38
2019-05-13T00:40:04.012Z,8.19
2019-05-13T00:42:33.427Z,8.10
2019-05-13T00:45:04.076Z,8.07
2019-05-13T00:47:34.208Z,8.00
2019-05-13T00:50:03.784Z,7.95
2019-05-13T00:52:33.874Z,7.84
2019-05-13T00:55:04.719Z,8.01
2019-05-13T00:57:34.157Z,7.87
2019-05-13T01:00:03.761Z,7.92
2019-05-13T01:02:33.887Z,8.00
2019-05-13T01:05:04.334Z,8.05
2019-05-13T01:07:34.104Z,8.14
2019-05-13T01:10:04.211Z,7.89
2019-05-13T01:12:34.481Z,7.95
2019-05-13T01:15:05.575Z,8.25
2019-05-13T01:17:36.901Z,8.57
2019-05-13T01:20:07.894Z,8.57
2019-05-13T01:22:36.678Z,8.27
2019-05-13T01:25:05.072Z,7.91
2019-05-13T01:27:35.077Z,7.88
2019-05-13T01:30:04.481Z,7.93
2019-05-13T01:32:34.690Z,7.84
2019-05-13T01:35:04.596Z,7.90
2019-05-13T01:37:42.253Z,7.90
2019-05-13T01:40:05.225Z,7.61
2019-05-13T01:42:34.409Z,7.57
2019-05-13T01:45:04.669Z,7.55
2019-05-13T01:47:34.500Z,7.81
2019-05-13T01:50:04.215Z,7.62
2019-05-13T01:52:34.317Z,7.62
2019-05-13T01:55:04.153Z,7.65
2019-05-13T01:57:34.293Z,7.33
2019-05-13T02:00:05.935Z,7.33
2019-05-13T02:02:35.059Z,6.98
2019-05-13T02:05:04.110Z,7.24
2019-05-13T02:07:33.997Z,7.32
2019-05-13T02:10:04.252Z,6.99
2019-05-13T02:12:34.070Z,7.05
2019-05-13T02:15:04.466Z,6.98
2019-05-13T02:17:33.788Z,6.60
2019-05-13T02:20:04.155Z,6.60
2019-05-13T02:22:33.709Z,6.31
2019-05-13T02:25:04.378Z,6.45
2019-05-13T02:27:34.485Z,6.15
2019-05-13T02:30:05.579Z,6.15
2019-05-13T02:32:35.118Z,6.30
2019-05-13T02:35:04.604Z,6.34
2019-05-13T02:37:34.440Z,6.26
2019-05-13T02:40:04.251Z,6.24
2019-05-13T02:42:34.429Z,6.24
2019-05-13T02:45:04.002Z,6.17
2019-05-13T02:47:33.449Z,6.22
2019-05-13T02:50:05.077Z,6.19
2019-05-13T02:52:33.667Z,5.98
2019-05-13T02:55:04.036Z,6.09
2019-05-13T02:57:33.265Z,6.22
2019-05-13T03:00:04.190Z,6.00
2019-05-13T03:02:33.740Z,5.78
2019-05-13T03:05:03.202Z,5.72
2019-05-13T03:07:33.302Z,5.71
2019-05-13T03:10:04.087Z,5.56
2019-05-13T03:12:33.542Z,5.50
2019-05-13T03:15:03.128Z,5.50
2019-05-13T03:17:43.089Z,5.32
2019-05-13T03:20:15.749Z,5.04
2019-05-13T03:22:43.417Z,5.21
2019-05-13T03:25:13.239Z,5.30
2019-05-13T03:27:42.933Z,5.31
2019-05-13T03:30:16.547Z,5.44
2019-05-13T03:32:51.445Z,5.33
2019-05-13T03:35:16.661Z,5.26
2019-05-13T03:37:44.065Z,5.33
2019-05-13T03:40:13.641Z,5.48
2019-05-13T03:42:47.041Z,5.57
2019-05-13T03:45:16.044Z,5.84
2019-05-13T03:49:32.888Z,5.47
2019-05-13T03:52:03.163Z,5.26
2019-05-13T03:54:33.974Z,5.15
2019-05-13T03:57:03.846Z,5.12
2019-05-13T03:59:33.818Z,5.23
2019-05-13T04:02:03.922Z,5.09
2019-05-13T04:04:33.129Z,5.09
2019-05-13T04:07:03.099Z,5.26
2019-05-13T04:09:36.229Z,5.32
2019-05-13T04:12:03.753Z,5.28
2019-05-13T04:14:33.706Z,5.28
2019-05-13T04:17:03.529Z,5.38
2019-05-13T04:19:33.864Z,5.48
2019-05-13T04:22:04.100Z,5.47
2019-05-13T04:24:33.904Z,5.26
2019-05-13T04:27:03.345Z,5.10
2019-05-13T04:29:33.306Z,5.65
2019-05-13T04:32:03.030Z,5.66
2019-05-13T04:34:33.622Z,5.66
2019-05-13T04:37:03.738Z,6.51
2019-05-13T04:39:45.764Z,8.06
2019-05-13T04:42:03.869Z,12.13
2019-05-13T04:44:34.286Z,12.13
2019-05-13T04:47:04.207Z,13.42
2019-05-13T04:49:33.523Z,14.53
2019-05-13T04:52:03.596Z,15.15
2019-05-13T04:54:33.669Z,15.91
2019-05-13T04:57:03.452Z,17.29
2019-05-13T04:59:34.589Z,18.36
2019-05-13T05:03:05.725Z,18.93
2019-05-13T05:06:18.833Z,20.15
2019-05-13T05:10:30.388Z,21.17
2019-05-13T05:14:33.922Z,22.31
2019-05-13T05:18:04.032Z,23.72
2019-05-13T05:21:01.492Z,24.40
2019-05-13T05:24:41.384Z,25.58
2019-05-13T05:27:51.298Z,25.77
2019-05-13T05:32:02.485Z,26.77
2019-05-13T05:35:48.512Z,27.66
2019-05-13T05:39:08.737Z,27.60
2019-05-13T05:41:42.194Z,27.62
2019-05-13T05:44:13.554Z,28.28
2019-05-13T05:46:42.924Z,28.77
2019-05-13T05:49:12.971Z,27.98
2019-05-13T05:51:44.115Z,28.79
2019-05-13T05:54:16.031Z,28.25
2019-05-13T05:56:47.522Z,29.39
2019-05-13T05:59:21.551Z,26.96
2019-05-13T06:01:54.294Z,23.81
2019-05-13T06:04:26.572Z,23.41
2019-05-13T06:06:56.531Z,22.81
2019-05-13T06:09:26.760Z,22.77
2019-05-13T06:11:55.245Z,22.77
2019-05-13T06:14:25.711Z,21.45
2019-05-13T06:16:54.249Z,23.74
2019-05-13T06:19:23.383Z,25.46
2019-05-13T06:21:52.909Z,23.72
2019-05-13T06:24:26.209Z,23.58
2019-05-13T06:26:53.674Z,23.69
2019-05-13T06:29:22.342Z,24.68
2019-05-13T06:31:52.863Z,24.68
2019-05-13T06:34:21.942Z,24.13
2019-05-13T06:36:52.306Z,22.52
2019-05-13T06:39:22.229Z,20.59
2019-05-13T06:41:51.766Z,20.59
2019-05-13T06:44:21.511Z,20.27
2019-05-13T06:46:51.666Z,20.46
2019-05-13T06:49:21.802Z,22.30
2019-05-13T06:51:52.676Z,22.88
2019-05-13T06:54:22.082Z,21.94
2019-05-13T06:56:51.793Z,23.10
2019-05-13T06:59:23.829Z,22.90
2019-05-13T07:01:53.944Z,21.89
2019-05-13T07:04:24.211Z,23.29
2019-05-13T07:07:08.767Z,23.38
2019-05-13T07:09:26.174Z,26.30
2019-05-13T07:11:56.999Z,25.52
2019-05-13T07:14:26.592Z,24.27
2019-05-13T07:16:56.324Z,26.92
2019-05-13T07:19:26.015Z,26.92
2019-05-13T07:21:55.767Z,26.73
2019-05-13T07:24:25.253Z,27.67
2019-05-13T07:26:56.831Z,26.44
2019-05-13T07:29:26.728Z,26.48
2019-05-13T07:31:56.576Z,24.79
2019-05-13T07:34:26.444Z,24.47
2019-05-13T07:36:55.933Z,24.15
2019-05-13T07:39:25.902Z,24.48
2019-05-13T07:41:55.000Z,22.39
2019-05-13T07:44:24.610Z,21.95
2019-05-13T07:46:56.296Z,21.86
2019-05-13T07:49:26.573Z,21.86
2019-05-13T07:51:57.122Z,22.33
2019-05-13T07:54:27.135Z,22.33
2019-05-13T07:56:57.716Z,22.27
2019-05-13T07:59:26.664Z,24.35
2019-05-13T08:02:02.211Z,23.94
2019-05-13T08:04:33.385Z,23.94
2019-05-13T08:07:04.131Z,24.38
2019-05-13T08:09:35.284Z,23.42
2019-05-13T08:13:57.429Z,21.42
2019-05-13T08:16:27.142Z,23.10
2019-05-13T08:18:57.758Z,22.61
2019-05-13T08:21:28.617Z,23.99
2019-05-13T08:24:02.655Z,25.73
2019-05-13T08:26:37.929Z,25.49
2019-05-13T08:29:06.178Z,27.23
2019-05-13T08:31:36.871Z,28.10
2019-05-13T08:34:11.552Z,23.44
2019-05-13T08:36:42.589Z,24.24
2019-05-13T08:39:12.776Z,24.66
2019-05-13T08:41:43.101Z,24.48
2019-05-13T08:44:13.785Z,25.68
2019-05-13T08:46:43.800Z,26.40
2019-05-13T08:49:13.671Z,26.42
2019-05-13T08:51:43.204Z,28.47
2019-05-13T08:54:12.663Z,29.27
2019-05-13T08:56:42.377Z,28.77
2019-05-13T08:59:13.303Z,28.36
2019-05-13T09:01:42.978Z,28.60
2019-05-13T09:04:12.995Z,26.21
2019-05-13T09:06:48.619Z,25.02
2019-05-13T09:09:17.061Z,24.17
2019-05-13T09:11:46.988Z,24.02
2019-05-13T09:14:16.136Z,26.97
2019-05-13T09:16:45.352Z,26.98
2019-05-13T09:19:16.261Z,28.16
2019-05-13T09:21:46.016Z,25.64
2019-05-13T09:24:25.387Z,25.23
2019-05-13T09:26:46.601Z,25.23
2019-05-13T09:29:14.993Z,19.59
2019-05-13T09:31:44.597Z,19.59
2019-05-13T09:34:13.010Z,22.53
2019-05-13T09:36:42.313Z,22.53
2019-05-13T09:39:12.677Z,20.26
2019-05-13T09:41:44.459Z,21.95
2019-05-13T09:44:13.014Z,23.02
2019-05-13T09:46:42.588Z,24.46
2019-05-13T09:49:19.413Z,23.35
2019-05-13T09:51:43.568Z,22.56
2019-05-13T09:54:13.411Z,20.40
2019-05-13T09:56:43.027Z,18.88
2019-05-13T09:59:13.315Z,20.14
2019-05-13T10:01:44.476Z,22.04
2019-05-13T10:04:15.108Z,20.66
2019-05-13T10:06:44.535Z,20.34
2019-05-13T10:09:15.317Z,19.36
2019-05-13T10:11:44.447Z,19.31
2019-05-13T10:14:14.123Z,20.22
2019-05-13T10:16:43.651Z,21.53
2019-05-13T10:19:12.860Z,21.43
2019-05-13T10:21:43.056Z,21.43
2019-05-13T10:24:13.554Z,18.63
2019-05-13T10:26:43.275Z,19.01
2019-05-13T10:29:12.636Z,19.01
2019-05-13T10:31:42.179Z,22.12
2019-05-13T10:34:14.111Z,22.12
2019-05-13T10:36:43.744Z,24.00
2019-05-13T10:39:13.384Z,23.06
2019-05-13T10:41:42.733Z,21.37
2019-05-13T10:44:13.082Z,22.67
2019-05-13T10:46:42.830Z,23.82
2019-05-13T10:49:12.466Z,24.62
2019-05-13T10:51:41.785Z,24.91
2019-05-13T10:54:11.632Z,26.94
2019-05-13T10:56:43.039Z,28.44
2019-05-13T10:59:12.678Z,27.94
2019-05-13T11:01:42.821Z,25.83
2019-05-13T11:04:14.035Z,23.08
2019-05-13T11:06:43.288Z,18.72
2019-05-13T11:09:13.249Z,18.65
2019-05-13T11:11:42.411Z,17.44
2019-05-13T11:14:15.554Z,18.63
2019-05-13T11:16:42.765Z,17.70
2019-05-13T11:19:12.172Z,18.22
2019-05-13T11:21:43.427Z,18.82
2019-05-13T11:24:12.883Z,21.87
2019-05-13T11:26:46.417Z,23.57
2019-05-13T11:29:15.405Z,23.68
2019-05-13T11:31:44.515Z,22.77
2019-05-13T11:34:13.701Z,25.77
2019-05-13T11:36:43.570Z,25.08
2019-05-13T11:39:13.032Z,24.26
2019-05-13T11:41:42.840Z,24.88
2019-05-13T11:44:16.668Z,27.21
2019-05-13T11:46:43.428Z,29.11
2019-05-13T11:49:12.735Z,24.90
2019-05-13T11:51:42.807Z,21.78
2019-05-13T11:54:13.971Z,20.32
2019-05-13T11:56:49.249Z,22.83
2019-05-13T11:59:14.411Z,24.73
2019-05-13T12:01:43.652Z,24.62
2019-05-13T12:04:11.903Z,23.67
2019-05-13T12:06:48.543Z,23.61
2019-05-13T12:09:13.293Z,22.90
2019-05-13T12:11:42.594Z,24.11
2019-05-13T12:15:14.937Z,23.82
2019-05-13T12:17:14.400Z,24.69
2019-05-13T12:19:56.278Z,23.40
2019-05-13T12:22:26.443Z,23.40
2019-05-13T12:24:56.334Z,21.81
2019-05-13T12:27:25.941Z,21.86
2019-05-13T12:29:55.115Z,22.72
2019-05-13T12:32:24.106Z,24.11
2019-05-13T12:34:53.317Z,25.94
2019-05-13T12:37:22.544Z,26.81
2019-05-13T12:39:53.144Z,25.46
2019-05-13T12:42:22.955Z,21.74
2019-05-13T12:45:05.405Z,21.74
2019-05-13T12:47:22.951Z,21.18
2019-05-13T12:49:53.774Z,20.96
2019-05-13T12:52:23.100Z,20.27
2019-05-13T12:54:53.107Z,22.56
2019-05-13T12:57:23.457Z,22.88
2019-05-13T12:59:52.587Z,22.78
2019-05-13T13:02:22.655Z,23.93
2019-05-13T13:05:08.846Z,23.93
2019-05-13T13:07:23.055Z,22.18
2019-05-13T13:09:53.852Z,21.34
2019-05-13T13:12:33.424Z,20.55
2019-05-13T13:14:54.911Z,21.79
2019-05-13T13:17:24.414Z,23.64
2019-05-13T13:19:56.829Z,22.79
2019-05-13T13:22:26.470Z,22.23
2019-05-13T13:24:57.347Z,20.76
2019-05-13T13:27:58.899Z,20.98
2019-05-13T13:30:03.237Z,19.87
2019-05-13T13:32:32.213Z,19.99
2019-05-13T13:35:03.458Z,18.71
2019-05-13T13:37:34.836Z,18.71
2019-05-13T13:42:59.119Z,19.50
2019-05-13T13:45:37.441Z,20.15
2019-05-13T13:48:03.836Z,20.53
2019-05-13T13:50:33.722Z,19.13
2019-05-13T13:53:03.100Z,18.55
2019-05-13T13:55:32.376Z,19.05
2019-05-13T13:58:02.459Z,20.04
2019-05-13T14:00:40.976Z,20.23
2019-05-13T14:03:06.595Z,20.23
2019-05-13T14:05:36.217Z,19.18
2019-05-13T14:08:04.559Z,19.40
2019-05-13T14:10:33.572Z,19.40
2019-05-13T14:13:04.904Z,18.96
2019-05-13T14:15:34.390Z,18.96
2019-05-13T14:18:03.728Z,18.20
2019-05-13T14:20:32.830Z,18.55
2019-05-13T14:23:02.814Z,19.17
2019-05-13T14:25:32.601Z,18.74
2019-05-13T14:28:01.750Z,19.43
2019-05-13T14:30:34.377Z,19.43
2019-05-13T14:33:03.410Z,19.48
2019-05-13T14:35:32.539Z,19.11
2019-05-13T14:38:02.588Z,18.75
2019-05-13T14:40:31.943Z,17.73
2019-05-13T14:43:03.695Z,18.28
2019-05-13T14:45:32.003Z,18.67
2019-05-13T14:48:01.661Z,19.29
2019-05-13T14:50:31.901Z,19.95
2019-05-13T14:53:01.685Z,19.42
2019-05-13T14:58:21.752Z,17.39
2019-05-13T15:01:10.458Z,16.95
2019-05-13T15:03:21.735Z,16.79
2019-05-13T15:07:21.621Z,17.79
2019-05-13T15:09:51.471Z,17.76
2019-05-13T15:12:21.655Z,18.04
2019-05-13T15:14:52.338Z,17.72
2019-05-13T15:17:21.878Z,16.28
2019-05-13T15:19:52.491Z,16.28
2019-05-13T15:22:22.702Z,16.90
2019-05-13T15:24:52.041Z,16.73
2019-05-13T15:27:22.298Z,17.15
2019-05-13T15:29:51.773Z,17.35
2019-05-13T15:32:21.789Z,17.93
2019-05-13T15:34:51.887Z,19.07
2019-05-13T15:37:21.576Z,19.34
2019-05-13T15:39:51.831Z,18.63
2019-05-13T15:42:21.374Z,18.94
2019-05-13T15:44:52.565Z,17.92
2019-05-13T15:47:24.094Z,17.88
2019-05-13T15:49:53.428Z,17.88
2019-05-13T15:52:22.774Z,17.67
2019-05-13T15:54:52.433Z,17.05
2019-05-13T15:57:21.517Z,16.79
2019-05-13T15:59:51.775Z,16.89
2019-05-13T16:02:22.646Z,16.91
2019-05-13T16:05:00.252Z,17.79
2019-05-13T16:07:23.169Z,18.51
2019-05-13T16:09:52.743Z,18.92
2019-05-13T16:12:22.080Z,18.88
2019-05-13T16:14:51.483Z,18.76
2019-05-13T16:17:36.576Z,19.18
2019-05-13T16:19:53.671Z,19.13
2019-05-13T16:22:23.179Z,18.25
2019-05-13T16:24:52.531Z,18.16
2019-05-13T16:27:22.366Z,16.38
2019-05-13T16:29:51.780Z,16.57
2019-05-13T16:32:22.733Z,16.57
2019-05-13T16:34:52.201Z,16.93
2019-05-13T16:37:21.949Z,17.58
2019-05-13T16:39:53.942Z,17.23
2019-05-13T16:42:23.073Z,17.33
2019-05-13T16:44:52.025Z,17.97
2019-05-13T16:47:21.345Z,18.61
2019-05-13T16:49:50.560Z,18.24
2019-05-13T16:52:21.915Z,18.12
2019-05-13T16:54:53.170Z,17.26
2019-05-13T16:57:21.515Z,17.22
2019-05-13T16:59:51.697Z,17.16
2019-05-13T17:02:21.109Z,16.64
2019-05-13T17:04:52.043Z,17.17
2019-05-13T17:07:21.338Z,17.10
2019-05-13T17:09:52.104Z,17.51
2019-05-13T17:12:21.463Z,18.25
2019-05-13T17:14:52.312Z,18.60
2019-05-13T17:17:21.577Z,18.60
2019-05-13T17:19:53.800Z,16.74
2019-05-13T17:22:22.046Z,16.74
2019-05-13T17:24:51.890Z,17.19
2019-05-13T17:30:46.757Z,17.71
2019-05-13T17:33:16.581Z,17.73
2019-05-13T17:35:45.560Z,16.52
2019-05-13T17:38:14.463Z,16.14
2019-05-13T17:40:49.617Z,16.14
2019-05-13T17:43:15.903Z,16.26
2019-05-13T17:45:45.183Z,16.52
2019-05-13T17:48:25.723Z,16.26
2019-05-13T17:50:45.749Z,15.86
2019-05-13T17:53:25.047Z,15.86
2019-05-13T17:55:56.234Z,15.43
2019-05-13T17:58:32.575Z,15.50
2019-05-13T18:01:58.354Z,15.58
2019-05-13T18:04:41.526Z,15.80
2019-05-13T18:07:26.055Z,15.44
2019-05-13T18:10:01.330Z,15.44
2019-05-13T18:12:30.855Z,15.10
2019-05-13T18:15:02.473Z,15.26
2019-05-13T18:17:31.948Z,14.87
2019-05-13T18:20:02.530Z,14.87
2019-05-13T18:22:31.778Z,14.66
2019-05-13T18:25:02.671Z,14.72
2019-05-13T18:27:32.431Z,14.70
2019-05-13T18:30:02.525Z,14.82
2019-05-13T18:32:32.133Z,14.32
2019-05-13T18:35:02.026Z,14.32
2019-05-13T18:37:31.818Z,14.38
2019-05-13T18:40:02.490Z,14.28
2019-05-13T18:42:32.460Z,14.03
2019-05-13T18:45:03.451Z,14.39
2019-05-13T18:47:40.456Z,14.25
2019-05-13T18:50:11.542Z,14.27
2019-05-13T18:52:42.035Z,14.16
2019-05-13T18:55:12.578Z,13.88
2019-05-13T18:57:42.031Z,13.73
2019-05-13T19:00:11.779Z,13.52
2019-05-13T19:02:41.515Z,13.39
2019-05-13T19:05:12.238Z,13.08
2019-05-13T19:07:41.948Z,13.16
2019-05-13T19:10:12.782Z,13.10
2019-05-13T19:12:42.365Z,12.88
2019-05-13T19:15:11.652Z,12.78
2019-05-13T19:17:41.600Z,12.77
2019-05-13T19:20:11.837Z,12.77
2019-05-13T19:22:41.406Z,12.78
2019-05-13T19:25:12.191Z,12.49
2019-05-13T19:27:43.906Z,12.45
2019-05-13T19:30:13.159Z,12.11
2019-05-13T19:32:42.508Z,12.16
2019-05-13T19:35:12.031Z,11.98
2019-05-13T19:37:42.460Z,11.98
2019-05-13T19:40:12.989Z,11.71
2019-05-13T19:42:42.475Z,11.68
2019-05-13T19:45:11.808Z,11.83
2019-05-13T19:47:41.784Z,11.83
2019-05-13T19:50:11.985Z,11.54
2019-05-13T19:52:41.571Z,11.55
2019-05-13T19:55:12.044Z,11.52
2019-05-13T19:57:42.526Z,11.67
2019-05-13T20:00:14.128Z,11.61
2019-05-13T20:02:43.416Z,11.50
2019-05-13T20:05:13.020Z,11.51
2019-05-13T20:07:42.172Z,11.29
2019-05-13T20:10:11.960Z,11.38
2019-05-13T20:12:41.985Z,11.08
2019-05-13T20:15:15.032Z,11.12
2019-05-13T20:17:44.306Z,11.03
2019-05-13T20:20:14.522Z,11.27
2019-05-13T20:22:43.862Z,11.16
2019-05-13T20:25:13.332Z,11.45
2019-05-13T20:27:42.865Z,11.19
2019-05-13T20:30:12.723Z,11.09
2019-05-13T20:32:42.159Z,10.94
2019-05-13T20:35:11.820Z,10.81
2019-05-13T20:37:42.174Z,10.85
2019-05-13T20:40:11.704Z,11.04
2019-05-13T20:42:42.260Z,10.87
2019-05-13T20:45:12.337Z,10.96
2019-05-13T20:47:42.179Z,11.06
2019-05-13T20:50:12.615Z,10.99
2019-05-13T20:52:42.104Z,11.12
2019-05-13T20:55:12.480Z,11.01
2019-05-13T20:57:55.412Z,11.01
2019-05-13T21:00:25.038Z,11.47
2019-05-13T21:03:04.288Z,11.44
2019-05-13T21:05:33.996Z,11.32
2019-05-13T21:08:05.699Z,11.23
2019-05-13T21:10:34.976Z,11.34
2019-05-13T21:13:04.169Z,11.32
2019-05-13T21:15:33.778Z,11.23
2019-05-13T21:18:05.326Z,11.12
2019-05-13T21:21:04.086Z,11.34
2019-05-13T21:23:34.476Z,11.35
2019-05-13T21:26:04.132Z,11.22
2019-05-13T21:28:33.914Z,11.37
2019-05-13T21:31:03.916Z,11.17
2019-05-13T21:33:33.486Z,11.45
2019-05-13T21:36:03.206Z,11.66
2019-05-13T21:38:32.985Z,11.66
2019-05-13T21:41:02.937Z,11.47
2019-05-13T21:43:33.071Z,11.36
2019-05-13T21:46:04.142Z,11.55
2019-05-13T21:48:33.883Z,11.25
2019-05-13T21:51:03.786Z,11.28
2019-05-13T21:53:34.290Z,11.25
2019-05-13T21:56:04.136Z,11.22
2019-05-13T21:58:33.751Z,10.96
2019-05-13T22:01:03.471Z,10.96
2019-05-13T22:03:33.692Z,11.20
2019-05-13T22:06:03.507Z,11.20
2019-05-13T22:08:33.140Z,11.21
2019-05-13T22:11:02.856Z,11.21
2019-05-13T22:13:32.892Z,11.09
2019-05-13T22:16:02.530Z,10.92
2019-05-13T22:18:32.082Z,11.10
2019-05-13T22:21:02.058Z,10.95
2019-05-13T22:23:33.033Z,11.04
2019-05-13T22:26:02.954Z,10.93
2019-05-13T22:28:33.585Z,11.01
2019-05-13T22:31:02.620Z,10.77
2019-05-13T22:33:32.647Z,10.61
2019-05-13T22:36:02.304Z,10.53
2019-05-13T22:38:32.666Z,10.58
2019-05-13T22:41:04.755Z,10.54
2019-05-13T22:43:34.459Z,10.79
2019-05-13T22:46:05.556Z,10.80
2019-05-13T22:48:34.729Z,10.45
2019-05-13T22:51:04.736Z,10.45
2019-05-13T22:53:33.570Z,10.24
2019-05-13T22:56:03.942Z,10.07
2019-05-13T22:58:33.713Z,10.07
2019-05-13T23:01:03.615Z,9.90
2019-05-13T23:03:33.593Z,9.80
2019-05-13T23:06:02.618Z,9.61
2019-05-13T23:08:32.594Z,9.32
2019-05-13T23:11:02.502Z,9.32
2019-05-13T23:13:31.893Z,9.09
2019-05-13T23:16:02.418Z,8.81
2019-05-13T23:18:31.915Z,8.68
2019-05-13T23:21:02.327Z,8.53
2019-05-13T23:23:32.423Z,8.19
2019-05-13T23:26:01.923Z,8.19
2019-05-13T23:28:32.264Z,8.10
2019-05-13T23:31:02.403Z,7.88
2019-05-13T23:33:32.005Z,7.91
2019-05-13T23:40:07.697Z,7.63
2019-05-13T23:42:36.008Z,7.71
2019-05-13T23:45:06.018Z,7.71
2019-05-13T23:47:35.451Z,7.85
2019-05-13T23:50:05.086Z,7.74
2019-05-13T23:52:34.581Z,7.56
2019-05-13T23:55:06.014Z,7.27
2019-05-13T23:57:35.406Z,7.27
